Time;durP1;ratioP1;P1;durP2;ratioP2;P2;SDS_P1;SDS_P2;PMS_P1;PMS_P2;Temp;Humidity;BMP_temperature;BMP_pressure;BME280_temperature;BME280_humidity;BME280_pressure;Samples;Min_cycle;Max_cycle;Signal;HPM_P1;HPM_P2
2021/09/17 00:00:54;;;;;;;7.90;6.33;;;;;;;13.57;100.00;98316.84;5072100;28;20241;-68
2021/09/17 00:03:21;;;;;;;7.10;6.40;;;;;;;13.55;100.00;98313.47;5072377;28;20216;-68
2021/09/17 00:05:49;;;;;;;6.57;5.80;;;;;;;13.51;100.00;98309.34;5072311;28;20352;-68
2021/09/17 00:08:15;;;;;;;7.77;6.00;;;;;;;13.48;100.00;98303.44;5072621;28;20212;-69
2021/09/17 00:10:42;;;;;;;6.60;5.93;;;;;;;13.42;100.00;98307.41;5075779;28;20681;-68
2021/09/17 00:13:08;;;;;;;6.00;5.40;;;;;;;13.36;100.00;98299.94;5075942;28;20222;-68
2021/09/17 00:15:35;;;;;;;7.40;6.20;;;;;;;13.32;100.00;98308.25;5073670;28;20219;-68
2021/09/17 00:18:01;;;;;;;6.50;5.70;;;;;;;13.34;100.00;98315.16;5075959;28;20213;-68
2021/09/17 00:20:28;;;;;;;7.23;6.27;;;;;;;13.34;100.00;98309.84;5075810;28;20224;-68
2021/09/17 00:22:56;;;;;;;7.43;6.17;;;;;;;13.35;100.00;98315.97;5075393;28;20680;-68
2021/09/17 00:25:22;;;;;;;6.17;5.37;;;;;;;13.37;100.00;98303.41;5075652;28;20231;-68
2021/09/17 00:27:48;;;;;;;6.10;5.50;;;;;;;13.37;100.00;98304.28;5075672;28;20216;-68
2021/09/17 00:30:15;;;;;;;5.97;5.37;;;;;;;13.39;100.00;98301.50;5075640;28;20217;-68
2021/09/17 00:32:41;;;;;;;7.00;5.70;;;;;;;13.43;100.00;98308.25;5075636;28;20333;-68
2021/09/17 00:35:09;;;;;;;6.27;5.67;;;;;;;13.45;100.00;98311.66;5075567;28;20208;-69
2021/09/17 00:37:36;;;;;;;6.13;5.53;;;;;;;13.43;100.00;98300.28;5075639;28;20217;-69
2021/09/17 00:40:04;;;;;;;8.53;6.63;;;;;;;13.37;100.00;98292.78;5075476;28;20244;-69
2021/09/17 00:42:35;;;;;;;7.93;6.60;;;;;;;13.34;100.00;98293.06;5073752;28;20239;-68
2021/09/17 00:45:02;;;;;;;8.40;7.40;;;;;;;13.36;100.00;98297.28;5075288;28;20268;-68
2021/09/17 00:47:28;;;;;;;8.80;7.50;;;;;;;13.36;100.00;98291.13;5075367;28;20216;-68
2021/09/17 00:49:55;;;;;;;8.07;7.27;;;;;;;13.42;100.00;98290.63;5075050;28;20664;-68
2021/09/17 00:52:21;;;;;;;8.47;7.47;;;;;;;13.45;100.00;98295.72;5074924;28;21647;-69
2021/09/17 00:54:48;;;;;;;8.10;7.30;;;;;;;13.45;100.00;98295.72;5075023;28;20212;-68
2021/09/17 00:57:16;;;;;;;8.53;7.20;;;;;;;13.43;100.00;98292.31;5074768;28;20221;-68
2021/09/17 00:59:42;;;;;;;7.83;7.03;;;;;;;13.45;100.00;98293.91;5064356;28;20221;-68
2021/09/17 01:02:08;;;;;;;7.57;6.87;;;;;;;13.43;100.00;98290.53;5063040;28;20737;-69
2021/09/17 01:04:35;;;;;;;7.97;6.67;;;;;;;13.48;100.00;98290.16;5062421;28;20223;-68
2021/09/17 01:07:01;;;;;;;7.40;6.70;;;;;;;13.50;100.00;98285.59;5060416;28;20237;-69
2021/09/17 01:09:28;;;;;;;8.93;7.70;;;;;;;13.52;100.00;98281.00;5058765;28;20212;-68
2021/09/17 01:11:55;;;;;;;7.67;6.87;;;;;;;13.52;100.00;98278.34;5062911;28;20210;-68
2021/09/17 01:14:23;;;;;;;9.37;7.30;;;;;;;13.59;100.00;98282.19;5072076;28;20315;-68
2021/09/17 01:16:49;;;;;;;8.60;7.37;;;;;;;13.58;100.00;98285.81;5074533;28;20587;-69
2021/09/17 01:19:16;;;;;;;9.53;7.73;;;;;;;13.59;100.00;98283.06;5074595;28;20217;-68
2021/09/17 01:21:44;;;;;;;9.50;7.90;;;;;;;13.61;100.00;98281.13;5074597;28;20576;-68
2021/09/17 01:24:10;;;;;;;9.83;8.00;;;;;;;13.60;100.00;98279.44;5074223;28;20238;-68
2021/09/17 01:26:37;;;;;;;8.87;7.77;;;;;;;13.62;100.00;98281.97;5074482;28;20236;-67
2021/09/17 01:29:04;;;;;;;9.20;7.73;;;;;;;13.63;100.00;98279.16;5074195;28;20217;-70
2021/09/17 01:31:31;;;;;;;8.30;7.50;;;;;;;13.65;100.00;98271.09;5074559;28;20600;-67
2021/09/17 01:34:05;;;;;;;9.93;7.77;;;;;;;13.65;100.00;98277.25;5073831;28;20217;-68
2021/09/17 01:36:32;;;;;;;9.20;7.80;;;;;;;13.67;100.00;98271.81;5074191;28;20214;-68
2021/09/17 01:39:00;;;;;;;9.90;7.30;;;;;;;13.74;100.00;98281.00;5074466;28;20209;-67
2021/09/17 01:41:27;;;;;;;7.97;6.80;;;;;;;13.55;100.00;98280.75;5074190;28;20217;-67
2021/09/17 01:43:53;;;;;;;7.40;6.70;;;;;;;13.49;100.00;98275.91;5071691;28;20236;-67
2021/09/17 01:46:20;;;;;;;8.80;7.33;;;;;;;13.54;100.00;98268.44;5073868;28;20243;-68
2021/09/17 01:48:47;;;;;;;8.30;7.40;;;;;;;13.55;100.00;98270.97;5074146;28;20239;-67
2021/09/17 01:51:14;;;;;;;9.77;7.97;;;;;;;13.59;100.00;98264.47;5073786;28;20211;-69
2021/09/17 01:53:41;;;;;;;9.70;7.73;;;;;;;13.61;100.00;98270.50;5074043;28;20562;-67
2021/09/17 01:56:08;;;;;;;9.50;8.17;;;;;;;13.61;100.00;98254.56;5073709;28;20216;-69
2021/09/17 01:58:35;;;;;;;9.57;7.40;;;;;;;13.58;100.00;98265.41;5074016;28;20208;-69
2021/09/17 02:01:02;;;;;;;10.53;7.90;;;;;;;13.55;100.00;98260.34;5071863;28;20241;-67
2021/09/17 02:03:28;;;;;;;9.40;7.53;;;;;;;13.50;100.00;98256.38;5073808;28;20220;-69
2021/09/17 02:05:55;;;;;;;11.43;7.70;;;;;;;13.53;100.00;98264.09;5073346;28;20251;-69
2021/09/17 02:08:21;;;;;;;10.80;8.17;;;;;;;13.59;100.00;98263.59;5073369;28;20665;-69
2021/09/17 02:10:48;;;;;;;9.13;7.17;;;;;;;13.51;100.00;98263.38;5073657;28;20592;-69
2021/09/17 02:13:19;;;;;;;9.43;7.00;;;;;;;13.49;100.00;98258.19;5073263;28;20215;-68
2021/09/17 02:15:46;;;;;;;8.47;7.27;;;;;;;13.49;100.00;98259.97;5063756;28;20219;-69
2021/09/17 02:18:12;;;;;;;8.53;7.47;;;;;;;13.48;100.00;98252.97;5073617;28;20602;-69
2021/09/17 02:20:39;;;;;;;9.70;7.53;;;;;;;13.51;100.00;98247.44;5073282;28;20225;-69
2021/09/17 02:23:05;;;;;;;8.07;6.93;;;;;;;13.52;100.00;98243.81;5073461;28;20219;-69
2021/09/17 02:25:32;;;;;;;8.87;7.37;;;;;;;13.53;100.00;98246.38;5073352;28;20246;-69
2021/09/17 02:27:59;;;;;;;8.63;7.70;;;;;;;13.56;100.00;98246.09;5071803;28;20286;-71
2021/09/17 02:30:27;;;;;;;8.47;7.07;;;;;;;13.56;100.00;98251.41;5073317;28;20313;-71
2021/09/17 02:32:53;;;;;;;8.27;7.37;;;;;;;13.54;100.00;98253.34;5072577;28;20695;-71
2021/09/17 02:35:20;;;;;;;8.47;7.57;;;;;;;13.58;100.00;98254.78;5073409;28;20212;-72
2021/09/17 02:37:46;;;;;;;9.10;8.00;;;;;;;13.61;100.00;98257.22;5073288;28;20607;-71
2021/09/17 02:40:16;;;;;;;8.20;6.80;;;;;;;13.60;100.00;98254.66;5072723;28;20681;-71
2021/09/17 02:42:43;;;;;;;8.70;6.93;;;;;;;13.56;100.00;98256.72;5062461;28;20221;-71
2021/09/17 02:45:12;;;;;;;8.10;6.97;;;;;;;13.55;100.00;98249.72;5062306;28;20214;-71
2021/09/17 02:47:41;;;;;;;8.90;7.10;;;;;;;13.57;100.00;98246.97;5072689;28;20686;-71
2021/09/17 02:50:09;;;;;;;10.60;7.90;;;;;;;13.55;100.00;98248.88;5072982;28;20221;-72
2021/09/17 02:52:36;;;;;;;8.80;7.23;;;;;;;13.53;100.00;98256.13;5072315;28;20219;-71
2021/09/17 02:55:03;;;;;;;7.90;6.90;;;;;;;13.50;100.00;98248.41;5071916;28;20212;-71
2021/09/17 02:57:30;;;;;;;8.40;7.23;;;;;;;13.52;100.00;98239.34;5072394;28;20220;-71
2021/09/17 02:59:56;;;;;;;8.73;7.37;;;;;;;13.51;100.00;98240.31;5072634;28;20213;-71
2021/09/17 03:02:23;;;;;;;8.40;7.50;;;;;;;13.47;100.00;98246.84;5073072;28;20242;-72
2021/09/17 03:04:51;;;;;;;8.90;7.57;;;;;;;13.42;100.00;98229.56;5072906;28;20208;-71
2021/09/17 03:07:17;;;;;;;8.37;7.47;;;;;;;13.39;100.00;98237.78;5072466;28;20243;-71
2021/09/17 03:09:44;;;;;;;8.30;7.07;;;;;;;13.37;100.00;98229.09;5072804;28;20219;-71
2021/09/17 03:12:10;;;;;;;8.50;6.63;;;;;;;13.38;100.00;98228.97;5072733;28;20220;-69
2021/09/17 03:14:37;;;;;;;7.70;6.90;;;;;;;13.38;100.00;98230.81;5072910;28;20207;-69
2021/09/17 03:17:04;;;;;;;10.87;7.67;;;;;;;13.37;100.00;98229.94;5072767;28;20211;-66
2021/09/17 03:19:30;;;;;;;8.20;7.23;;;;;;;13.39;100.00;98224.53;5071276;28;20212;-69
2021/09/17 03:22:00;;;;;;;10.67;7.77;;;;;;;13.40;100.00;98219.09;5072990;28;20220;-68
2021/09/17 03:24:26;;;;;;;8.50;7.40;;;;;;;13.41;100.00;98220.78;5072732;28;20226;-69
2021/09/17 03:26:53;;;;;;;10.30;8.57;;;;;;;13.44;100.00;98214.38;5072391;28;20236;-69
2021/09/17 03:29:19;;;;;;;9.17;8.10;;;;;;;13.47;100.00;98222.94;5072816;28;20223;-69
2021/09/17 03:31:46;;;;;;;11.37;8.50;;;;;;;13.48;100.00;98221.97;5072479;28;20671;-68
2021/09/17 03:34:13;;;;;;;9.40;8.40;;;;;;;13.49;100.00;98223.66;5072276;28;20223;-69
2021/09/17 03:36:42;;;;;;;9.90;8.57;;;;;;;13.53;100.00;98218.94;5072654;28;20618;-68
2021/09/17 03:39:10;;;;;;;10.37;8.10;;;;;;;13.54;100.00;98220.63;5072497;28;20576;-68
2021/09/17 03:41:36;;;;;;;9.17;8.13;;;;;;;13.55;100.00;98222.31;5072708;28;20218;-69
2021/09/17 03:44:03;;;;;;;10.60;8.43;;;;;;;13.53;100.00;98221.59;5074286;28;20710;-68
2021/09/17 03:46:30;;;;;;;9.90;8.63;;;;;;;13.52;100.00;98222.56;5074645;28;20239;-69
2021/09/17 03:48:56;;;;;;;9.13;7.57;;;;;;;13.49;100.00;98230.78;5076303;28;20234;-67
2021/09/17 03:51:24;;;;;;;9.63;8.33;;;;;;;13.52;100.00;98230.53;5073789;28;20222;-67
2021/09/17 03:53:50;;;;;;;10.33;8.60;;;;;;;13.46;100.00;98231.03;5075954;28;20212;-67
2021/09/17 03:56:19;;;;;;;10.53;8.70;;;;;;;13.35;100.00;98231.03;5076296;28;20211;-69
2021/09/17 03:58:45;;;;;;;8.80;7.47;;;;;;;13.24;100.00;98223.06;5076019;28;20685;-67
2021/09/17 04:01:12;;;;;;;10.43;8.60;;;;;;;13.17;100.00;98227.16;5076169;28;20244;-68
2021/09/17 04:03:38;;;;;;;10.90;9.13;;;;;;;13.08;100.00;98225.22;5076246;28;20223;-67
2021/09/17 04:06:05;;;;;;;10.83;8.43;;;;;;;12.99;100.00;98220.63;5075766;28;20232;-68
2021/09/17 04:08:31;;;;;;;10.17;8.47;;;;;;;12.93;100.00;98218.41;5076204;28;20215;-68
2021/09/17 04:10:58;;;;;;;12.00;8.27;;;;;;;12.85;100.00;98220.81;5075880;28;20212;-68
2021/09/17 04:13:25;;;;;;;10.27;8.37;;;;;;;12.84;100.00;98219.13;5073928;28;20227;-67
2021/09/17 04:15:52;;;;;;;11.17;8.63;;;;;;;12.85;100.00;98215.50;5075703;28;20696;-68
2021/09/17 04:18:18;;;;;;;11.03;9.40;;;;;;;12.82;100.00;98221.91;5075844;28;20221;-68
2021/09/17 04:20:45;;;;;;;11.03;8.97;;;;;;;12.76;100.00;98216.19;5075643;28;20218;-69
2021/09/17 04:23:11;;;;;;;10.63;8.23;;;;;;;12.71;100.00;98221.03;5075691;28;20226;-69
2021/09/17 04:25:38;;;;;;;10.97;8.37;;;;;;;12.61;100.00;98220.03;5075539;28;20684;-69
2021/09/17 04:28:05;;;;;;;9.57;8.37;;;;;;;12.53;100.00;98219.78;5075698;28;20236;-69
2021/09/17 04:30:33;;;;;;;9.63;8.37;;;;;;;12.45;100.00;98216.84;5075298;28;20701;-69
2021/09/17 04:33:00;;;;;;;9.37;8.17;;;;;;;12.34;100.00;98224.78;5075459;28;20216;-69
2021/09/17 04:35:27;;;;;;;11.07;8.67;;;;;;;12.22;100.00;98220.38;5075384;28;20685;-68
2021/09/17 04:37:56;;;;;;;11.33;9.17;;;;;;;12.17;100.00;98217.22;5073788;28;20218;-68
2021/09/17 04:40:24;;;;;;;12.43;9.47;;;;;;;12.07;100.00;98221.50;5075394;28;20265;-69
2021/09/17 04:42:51;;;;;;;11.83;8.77;;;;;;;12.03;100.00;98222.69;5072830;28;20226;-69
2021/09/17 04:45:18;;;;;;;9.63;7.83;;;;;;;11.95;100.00;98231.22;5075359;28;20219;-68
2021/09/17 04:47:45;;;;;;;10.67;8.70;;;;;;;11.89;100.00;98228.16;5075060;28;20250;-69
2021/09/17 04:50:12;;;;;;;11.60;8.73;;;;;;;11.86;100.00;98231.03;5075152;28;20215;-68
2021/09/17 04:52:39;;;;;;;10.80;8.93;;;;;;;11.78;100.00;98230.72;5075204;28;20212;-68
2021/09/17 04:55:06;;;;;;;10.77;8.83;;;;;;;11.74;100.00;98237.22;5074570;28;20567;-68
2021/09/17 04:57:33;;;;;;;11.47;9.33;;;;;;;11.69;100.00;98234.88;5075124;28;20582;-68
2021/09/17 04:59:59;;;;;;;9.77;8.30;;;;;;;11.67;100.00;98233.31;5075154;28;20207;-68
2021/09/17 05:02:26;;;;;;;9.93;8.60;;;;;;;11.65;100.00;98235.22;5075185;28;20244;-68
2021/09/17 05:04:53;;;;;;;11.03;8.60;;;;;;;11.63;100.00;98242.44;5073608;28;20230;-68
2021/09/17 05:07:20;;;;;;;12.03;9.47;;;;;;;11.60;100.00;98234.69;5075006;28;20258;-68
2021/09/17 05:09:46;;;;;;;12.40;9.07;;;;;;;11.61;100.00;98239.06;5075017;28;20237;-68
2021/09/17 05:12:13;;;;;;;10.90;8.43;;;;;;;11.65;100.00;98240.50;5065655;28;20226;-68
2021/09/17 05:14:39;;;;;;;12.63;9.47;;;;;;;11.75;100.00;98231.78;5074518;28;20684;-68
2021/09/17 05:17:06;;;;;;;12.67;9.87;;;;;;;11.87;100.00;98243.31;5074809;28;20214;-68
2021/09/17 05:19:32;;;;;;;11.90;9.37;;;;;;;11.99;100.00;98239.78;5074732;28;20215;-69
2021/09/17 05:22:00;;;;;;;12.27;9.73;;;;;;;12.13;100.00;98235.16;5074688;28;20215;-69
2021/09/17 05:24:27;;;;;;;14.47;10.93;;;;;;;12.23;100.00;98230.03;5074674;28;20239;-69
2021/09/17 05:26:53;;;;;;;13.80;10.50;;;;;;;12.37;100.00;98240.44;5074420;28;20235;-69
2021/09/17 05:29:19;;;;;;;15.10;10.70;;;;;;;12.46;100.00;98237.13;5074445;28;20234;-68
2021/09/17 05:31:46;;;;;;;12.50;10.20;;;;;;;12.55;100.00;98239.91;5072585;28;20219;-68
2021/09/17 05:34:13;;;;;;;14.13;10.67;;;;;;;12.65;100.00;98240.88;5074098;28;20207;-68
2021/09/17 05:36:39;;;;;;;15.53;11.00;;;;;;;12.71;100.00;98235.13;5074135;28;20214;-68
2021/09/17 05:39:07;;;;;;;16.13;10.90;;;;;;;12.82;100.00;98232.50;5074366;28;20211;-67
2021/09/17 05:41:34;;;;;;;14.30;10.30;;;;;;;12.94;100.00;98236.00;5074355;28;20209;-68
2021/09/17 05:44:00;;;;;;;15.40;10.70;;;;;;;12.99;100.00;98233.88;5074264;28;20230;-69
2021/09/17 05:46:27;;;;;;;12.40;9.63;;;;;;;13.05;100.00;98241.38;5073833;28;20607;-68
2021/09/17 05:48:53;;;;;;;12.57;9.63;;;;;;;13.14;100.00;98243.34;5074070;28;20220;-68
2021/09/17 05:51:20;;;;;;;14.80;10.83;;;;;;;13.17;100.00;98240.41;5071045;28;20212;-68
2021/09/17 05:53:46;;;;;;;14.43;10.57;;;;;;;13.23;100.00;98240.81;5073856;28;20212;-68
2021/09/17 05:56:14;;;;;;;12.40;10.57;;;;;;;13.31;100.00;98241.03;5072698;28;20230;-68
2021/09/17 05:58:40;;;;;;;13.33;10.47;;;;;;;13.38;100.00;98242.25;5073178;28;20212;-68
2021/09/17 06:01:07;;;;;;;12.87;10.37;;;;;;;13.42;100.00;98245.50;5073728;28;20236;-68
2021/09/17 06:03:34;;;;;;;12.10;9.87;;;;;;;13.48;100.00;98247.66;5073466;28;20215;-68
2021/09/17 06:06:00;;;;;;;11.03;9.57;;;;;;;13.54;100.00;98239.22;5072927;28;20208;-69
2021/09/17 06:08:27;;;;;;;12.03;9.47;;;;;;;13.59;100.00;98239.72;5073402;28;20727;-69
2021/09/17 06:10:53;;;;;;;12.00;9.30;;;;;;;13.65;100.00;98236.56;5073778;28;20226;-69
2021/09/17 06:13:21;;;;;;;11.67;9.83;;;;;;;13.70;100.00;98231.72;5071432;28;20220;-69
2021/09/17 06:15:48;;;;;;;12.23;9.90;;;;;;;13.74;100.00;98233.19;5073596;28;20215;-69
2021/09/17 06:18:15;;;;;;;12.63;9.77;;;;;;;13.80;100.00;98227.34;5072790;28;20221;-68
2021/09/17 06:20:41;;;;;;;13.77;10.53;;;;;;;13.93;100.00;98217.44;5070700;28;20572;-69
2021/09/17 06:23:07;;;;;;;14.87;10.27;;;;;;;14.03;100.00;98223.69;5070607;28;20209;-69
2021/09/17 06:25:34;;;;;;;10.40;9.30;;;;;;;14.21;100.00;98224.88;5072171;28;20698;-70
2021/09/17 06:28:01;;;;;;;10.90;9.60;;;;;;;14.32;100.00;98230.16;5067319;28;20268;-69
2021/09/17 06:30:29;;;;;;;12.60;9.67;;;;;;;14.36;100.00;98234.25;5073079;28;20224;-69
2021/09/17 06:32:55;;;;;;;14.57;9.97;;;;;;;14.37;100.00;98239.44;5073187;28;20217;-69
2021/09/17 06:35:22;;;;;;;10.00;8.57;;;;;;;14.41;100.00;98234.69;5073285;28;20217;-69
2021/09/17 06:37:50;;;;;;;11.30;9.30;;;;;;;14.46;100.00;98240.47;5073154;28;20217;-70
2021/09/17 06:40:18;;;;;;;12.13;9.27;;;;;;;14.50;100.00;98236.59;5073070;28;20213;-69
2021/09/17 06:42:45;;;;;;;10.80;8.93;;;;;;;14.52;100.00;98235.50;5073197;28;20221;-69
2021/09/17 06:45:12;;;;;;;9.87;8.50;;;;;;;14.61;100.00;98241.88;5072936;28;20217;-69
2021/09/17 06:47:47;;;;;;;10.93;9.27;;;;;;;14.67;100.00;98236.88;5073181;28;20248;-69
2021/09/17 06:50:14;;;;;;;10.97;9.00;;;;;;;14.74;100.00;98238.03;5071464;28;20216;-70
2021/09/17 06:52:47;;;;;;;12.87;8.97;;;;;;;14.83;100.00;98236.44;5070320;28;20216;-69
2021/09/17 06:55:14;;;;;;;12.47;9.37;;;;;;;14.92;100.00;98235.66;5072792;28;20213;-66
2021/09/17 06:57:45;;;;;;;9.63;8.50;;;;;;;14.99;100.00;98243.00;5073205;28;20560;-70
2021/09/17 07:00:14;;;;;;;9.77;8.37;;;;;;;15.08;100.00;98242.22;5070006;28;20209;-66
2021/09/17 07:02:40;;;;;;;10.93;8.47;;;;;;;15.15;100.00;98242.53;5073227;28;20222;-68
2021/09/17 07:05:08;;;;;;;9.43;8.10;;;;;;;15.18;100.00;98242.25;5073164;28;20219;-68
2021/09/17 07:07:35;;;;;;;11.00;8.77;;;;;;;15.22;100.00;98244.53;5072986;28;20240;-69
2021/09/17 07:10:02;;;;;;;9.33;8.33;;;;;;;15.30;100.00;98241.22;5073010;28;20241;-68
2021/09/17 07:12:28;;;;;;;10.23;8.77;;;;;;;15.39;100.00;98245.78;5072889;28;20214;-70
2021/09/17 07:14:55;;;;;;;12.10;9.00;;;;;;;15.47;100.00;98248.63;5071526;28;20218;-69
2021/09/17 07:17:21;;;;;;;10.03;8.93;;;;;;;15.46;100.00;98246.94;5072905;28;20210;-70
2021/09/17 07:19:47;;;;;;;10.97;9.50;;;;;;;15.51;100.00;98258.03;5077051;28;20226;-70
2021/09/17 07:22:15;;;;;;;11.67;9.33;;;;;;;15.56;100.00;98258.47;5076988;28;20224;-69
2021/09/17 07:24:42;;;;;;;11.23;9.00;;;;;;;15.63;100.00;98248.97;5076959;28;20214;-69
2021/09/17 07:27:09;;;;;;;9.13;8.23;;;;;;;15.73;100.00;98255.16;5076731;28;20233;-70
2021/09/17 07:29:35;;;;;;;9.07;8.03;;;;;;;15.83;100.00;98258.72;5076721;28;20229;-70
2021/09/17 07:32:02;;;;;;;11.00;8.70;;;;;;;15.91;100.00;98258.88;5076701;28;20590;-69
2021/09/17 07:34:28;;;;;;;12.23;9.00;;;;;;;16.00;100.00;98266.06;5076637;28;20229;-69
2021/09/17 07:36:55;;;;;;;10.40;8.90;;;;;;;16.08;100.00;98261.72;5076719;28;20219;-70
2021/09/17 07:39:23;;;;;;;10.77;9.00;;;;;;;16.14;100.00;98267.34;5076558;28;20215;-69
2021/09/17 07:41:49;;;;;;;11.80;8.97;;;;;;;16.13;100.00;98258.66;5067067;28;20217;-69
2021/09/17 07:44:16;;;;;;;12.77;9.33;;;;;;;16.09;100.00;98258.91;5076472;28;20215;-71
2021/09/17 07:46:42;;;;;;;13.17;9.13;;;;;;;16.12;100.00;98256.97;5076453;28;20214;-71
2021/09/17 07:49:09;;;;;;;10.40;8.47;;;;;;;16.19;100.00;98251.78;5076285;28;20242;-71
2021/09/17 07:51:36;;;;;;;9.87;7.97;;;;;;;16.26;100.00;98254.72;5076263;28;20213;-70
2021/09/17 07:54:02;;;;;;;10.27;8.50;;;;;;;16.37;100.00;98252.81;5076345;28;20268;-69
2021/09/17 07:56:30;;;;;;;11.17;9.20;;;;;;;16.45;100.00;98255.66;5076215;28;20223;-69
2021/09/17 07:58:57;;;;;;;10.17;8.30;;;;;;;16.54;100.00;98257.50;5076311;28;20583;-70
2021/09/17 08:01:23;;;;;;;12.80;9.50;;;;;;;16.64;100.00;98260.16;5075843;28;20245;-70
2021/09/17 08:03:50;;;;;;;10.60;8.63;;;;;;;16.75;100.00;98257.31;5076281;28;20218;-70
2021/09/17 08:06:16;;;;;;;11.37;9.47;;;;;;;16.76;100.00;98259.84;5076236;28;20225;-70
2021/09/17 08:08:43;;;;;;;10.17;8.97;;;;;;;16.85;100.00;98263.50;5074428;28;20241;-70
2021/09/17 08:11:09;;;;;;;11.27;9.23;;;;;;;16.96;100.00;98261.53;5075666;28;20677;-69
2021/09/17 08:13:37;;;;;;;10.50;8.80;;;;;;;17.08;100.00;98256.88;5065282;28;20219;-69
2021/09/17 08:16:04;;;;;;;11.23;9.73;;;;;;;17.19;100.00;98268.25;5075875;28;20214;-69
2021/09/17 08:18:31;;;;;;;9.57;8.57;;;;;;;17.33;100.00;98264.28;5075575;28;20211;-70
2021/09/17 08:20:58;;;;;;;9.03;8.13;;;;;;;17.44;100.00;98258.81;5075503;28;20243;-70
2021/09/17 08:23:26;;;;;;;10.27;8.77;;;;;;;17.50;100.00;98263.56;5075349;28;20753;-70
2021/09/17 08:25:54;;;;;;;9.77;8.43;;;;;;;17.53;100.00;98261.44;5075411;28;20692;-70
2021/09/17 08:28:21;;;;;;;11.20;9.23;;;;;;;17.49;100.00;98265.38;5075132;28;20257;-71
2021/09/17 08:30:49;;;;;;;9.70;8.43;;;;;;;17.54;99.89;98263.13;5074834;28;20211;-70
2021/09/17 08:33:16;;;;;;;10.73;8.67;;;;;;;17.57;98.42;98273.53;5073936;28;20219;-70
2021/09/17 08:35:42;;;;;;;9.10;8.20;;;;;;;17.67;99.37;98268.97;5075739;28;20215;-69
2021/09/17 08:38:09;;;;;;;11.43;8.40;;;;;;;17.79;99.11;98262.47;5075552;28;20215;-70
2021/09/17 08:40:35;;;;;;;10.60;8.80;;;;;;;17.84;97.14;98264.69;5075182;28;20215;-69
2021/09/17 08:43:02;;;;;;;10.13;8.90;;;;;;;17.89;96.09;98262.41;5075455;28;20208;-70
2021/09/17 08:45:30;;;;;;;12.23;8.60;;;;;;;17.99;96.37;98260.53;5075403;28;20211;-70
2021/09/17 08:47:58;;;;;;;10.63;9.40;;;;;;;18.09;93.28;98259.50;5075218;28;20604;-70
2021/09/17 08:50:25;;;;;;;11.23;9.10;;;;;;;18.13;91.94;98268.91;5075119;28;20226;-70
2021/09/17 08:52:52;;;;;;;9.93;8.90;;;;;;;18.23;91.90;98268.84;5075278;28;20222;-69
2021/09/17 08:55:19;;;;;;;11.10;8.67;;;;;;;18.31;93.02;98261.78;5075169;28;20207;-69
2021/09/17 08:57:46;;;;;;;9.80;8.80;;;;;;;18.47;92.96;98263.78;5072087;28;20221;-70
2021/09/17 09:00:37;;;;;;;10.30;9.30;;;;;;;18.55;92.32;98272.75;5073015;28;20215;-71
2021/09/17 09:03:08;;;;;;;10.77;9.50;;;;;;;18.67;91.86;98266.19;5063786;28;20211;-68
2021/09/17 09:05:36;;;;;;;11.97;8.93;;;;;;;18.67;89.77;98266.19;5074995;28;20246;-69
2021/09/17 09:08:05;;;;;;;9.70;8.70;;;;;;;18.64;88.13;98271.81;5074675;28;20241;-68
2021/09/17 09:10:32;;;;;;;10.50;8.50;;;;;;;18.73;89.84;98270.94;5074859;28;20223;-69
2021/09/17 09:13:00;;;;;;;8.87;7.97;;;;;;;18.95;90.86;98262.41;5074976;28;20626;-69
2021/09/17 09:15:29;;;;;;;10.03;8.90;;;;;;;19.16;89.94;98257.56;5074847;28;20219;-69
2021/09/17 09:17:57;;;;;;;9.03;8.13;;;;;;;19.27;88.64;98268.03;5074608;28;20298;-69
2021/09/17 09:20:27;;;;;;;9.50;8.50;;;;;;;19.39;88.04;98264.09;5074507;28;20219;-69
2021/09/17 09:23:11;;;;;;;9.40;8.50;;;;;;;19.43;86.56;98265.47;5074739;28;20225;-70
2021/09/17 09:25:54;;;;;;;9.50;8.17;;;;;;;19.59;86.15;98259.38;5072904;28;20219;-69
2021/09/17 09:28:23;;;;;;;11.00;8.03;;;;;;;19.71;85.41;98255.41;5063585;28;20250;-69
2021/09/17 09:30:51;;;;;;;9.90;8.90;;;;;;;19.84;85.16;98259.34;5074706;28;20214;-69
2021/09/17 09:33:22;;;;;;;8.77;7.87;;;;;;;19.89;83.44;98248.13;5074168;28;20699;-70
2021/09/17 09:35:57;;;;;;;8.33;7.37;;;;;;;19.96;82.42;98252.69;5074098;28;20212;-70
2021/09/17 09:38:31;;;;;;;9.77;7.63;;;;;;;20.03;82.61;98245.69;5074347;28;20222;-69
2021/09/17 09:40:59;;;;;;;9.43;8.50;;;;;;;20.12;83.65;98249.28;5073404;28;20223;-69
2021/09/17 09:43:30;;;;;;;8.60;7.77;;;;;;;20.24;83.56;98246.09;5071295;28;20241;-69
2021/09/17 09:46:16;;;;;;;9.97;8.97;;;;;;;20.37;81.68;98240.28;5074187;28;20230;-69
2021/09/17 09:49:09;;;;;;;11.10;9.27;;;;;;;20.29;79.07;98237.59;5073778;28;20239;-69
2021/09/17 09:51:38;;;;;;;10.13;9.13;;;;;;;20.31;79.31;98247.13;5072038;28;20592;-70
2021/09/17 09:54:06;;;;;;;8.67;7.73;;;;;;;20.38;78.97;98245.50;5073766;28;20211;-69
2021/09/17 09:56:34;;;;;;;10.03;9.03;;;;;;;20.45;78.42;98249.19;5074096;28;20214;-69
2021/09/17 09:59:02;;;;;;;9.30;8.30;;;;;;;20.49;77.94;98249.72;5074019;28;20211;-69
2021/09/17 10:01:30;;;;;;;10.90;8.87;;;;;;;20.35;76.24;98242.31;5071415;28;20305;-69
2021/09/17 10:03:57;;;;;;;10.03;9.00;;;;;;;20.33;76.11;98234.41;5073913;28;20211;-69
2021/09/17 10:06:25;;;;;;;10.87;9.37;;;;;;;20.43;77.37;98231.56;5073889;28;20209;-69
2021/09/17 10:08:54;;;;;;;10.67;9.30;;;;;;;20.35;77.00;98236.94;5073913;28;20301;-69
2021/09/17 10:11:20;;;;;;;10.83;9.53;;;;;;;20.26;75.75;98233.38;5060866;28;20321;-69
2021/09/17 10:13:47;;;;;;;11.73;9.63;;;;;;;20.26;77.35;98227.16;5073851;28;20214;-69
2021/09/17 10:16:16;;;;;;;9.40;8.37;;;;;;;20.22;76.80;98236.53;5073778;28;20207;-69
2021/09/17 10:18:44;;;;;;;10.83;9.73;;;;;;;20.34;75.87;98227.19;5071770;28;20214;-69
2021/09/17 10:21:13;;;;;;;9.50;8.50;;;;;;;20.46;76.45;98234.75;5073265;28;20218;-69
2021/09/17 10:23:44;;;;;;;11.30;9.80;;;;;;;20.42;74.33;98233.41;5073500;28;20660;-69
2021/09/17 10:26:15;;;;;;;9.73;8.60;;;;;;;20.42;76.39;98227.22;5073226;28;20226;-69
2021/09/17 10:29:03;;;;;;;12.37;10.00;;;;;;;20.50;75.80;98225.38;5070885;28;20239;-70
2021/09/17 10:31:41;;;;;;;12.60;9.53;;;;;;;20.39;74.21;98222.16;5064191;28;20225;-69
2021/09/17 10:34:29;;;;;;;10.17;9.10;;;;;;;20.32;73.87;98222.00;5073091;28;20214;-69
2021/09/17 10:36:55;;;;;;;11.50;10.37;;;;;;;20.18;74.24;98219.09;5071078;28;20211;-69
2021/09/17 10:39:22;;;;;;;10.17;9.07;;;;;;;20.04;74.58;98209.78;5072967;28;20207;-69
2021/09/17 10:42:11;;;;;;;11.77;10.40;;;;;;;19.97;75.12;98218.66;5072970;28;20694;-69
2021/09/17 10:45:16;;;;;;;9.83;8.83;;;;;;;20.17;72.86;98223.63;5070705;28;20219;-69
2021/09/17 10:48:01;;;;;;;11.93;10.67;;;;;;;20.16;72.07;98215.72;5073096;28;20215;-69
2021/09/17 10:50:39;;;;;;;9.97;8.97;;;;;;;20.34;70.97;98219.13;5071942;28;20235;-69
2021/09/17 10:53:06;;;;;;;11.50;9.00;;;;;;;20.50;70.75;98217.34;5063690;28;20292;-69
2021/09/17 10:56:02;;;;;;;8.70;7.70;;;;;;;20.72;70.98;98202.41;5073145;28;20269;-70
2021/09/17 10:58:32;;;;;;;10.33;8.80;;;;;;;20.88;73.55;98203.28;5072898;28;20216;-69
2021/09/17 11:01:01;;;;;;;9.67;8.77;;;;;;;20.93;75.27;98206.31;5072546;28;20277;-69
2021/09/17 11:03:58;;;;;;;7.33;6.73;;;;;;;20.98;75.16;98206.63;5073258;28;20299;-69
2021/09/17 11:06:27;;;;;;;8.47;7.67;;;;;;;21.04;74.34;98208.63;5070737;28;20249;-69
2021/09/17 11:08:56;;;;;;;9.70;8.67;;;;;;;21.08;72.11;98201.91;5072882;28;20282;-69
2021/09/17 11:11:24;;;;;;;9.73;8.70;;;;;;;21.07;72.42;98199.38;5070959;28;20215;-69
2021/09/17 11:13:53;;;;;;;7.27;6.33;;;;;;;21.22;72.78;98211.97;5073112;28;20577;-69
2021/09/17 11:16:20;;;;;;;7.90;7.20;;;;;;;21.29;70.86;98210.31;5072994;28;20233;-70
2021/09/17 11:18:52;;;;;;;9.20;7.90;;;;;;;21.19;70.09;98206.94;5072877;28;20214;-70
2021/09/17 11:21:19;;;;;;;8.43;7.63;;;;;;;21.13;69.08;98196.88;5072896;28;20307;-69
2021/09/17 11:23:48;;;;;;;7.73;6.93;;;;;;;20.96;68.65;98199.75;5072919;28;20294;-69
2021/09/17 11:26:19;;;;;;;9.33;8.20;;;;;;;20.82;68.94;98201.22;5072566;28;20233;-69